Time;durP1;ratioP1;P1;durP2;ratioP2;P2;SDS_P1;SDS_P2;PMS_P1;PMS_P2;Temp;Humidity;BMP_temperature;BMP_pressure;BME280_temperature;BME280_humidity;BME280_pressure;Samples;Min_cycle;Max_cycle;Signal;HPM_P1;HPM_P2
2022/07/14 00:00:26;;;;;;;;;;;;;;;16.47;94.69;99571.55;1727379;82;20190;-79
2022/07/14 00:03:31;;;;;;;;;;;;;;;16.44;94.54;99568.41;1716619;83;20194;-80
2022/07/14 00:06:36;;;;;;;;;;;;;;;16.41;94.58;99578.52;1716333;82;20555;-80
2022/07/14 00:09:40;;;;;;;;;;;;;;;16.37;94.41;99575.38;1717881;83;20225;-80
2022/07/14 00:12:45;;;;;;;;;;;;;;;16.34;94.56;99575.86;1716998;83;20225;-79
2022/07/14 00:15:51;;;;;;;;;;;;;;;16.34;94.86;99581.37;1716611;83;20206;-80
2022/07/14 00:18:55;;;;;;;;;;;;;;;16.33;95.17;99576.94;1716024;83;20676;-80
2022/07/14 00:22:00;;;;;;;;;;;;;;;16.31;95.21;99575.77;1717461;83;20688;-80
2022/07/14 00:25:05;;;;;;;;;;;;;;;16.30;95.36;99579.61;1717667;83;20197;-80
2022/07/14 00:28:09;;;;;;;;;;;;;;;16.29;95.62;99576.55;1716592;83;20604;-80
2022/07/14 00:31:16;;;;;;;;;;;;;;;16.28;95.79;99576.79;1751084;82;20240;-80
2022/07/14 00:34:21;;;;;;;;;;;;;;;16.27;96.06;99575.08;1757587;81;20181;-80
2022/07/14 00:37:27;;;;;;;;;;;;;;;16.26;96.37;99573.40;1757355;81;20592;-80
2022/07/14 00:40:31;;;;;;;;;;;;;;;16.24;96.50;99568.66;1757640;81;20225;-80
2022/07/14 00:43:36;;;;;;;;;;;;;;;16.21;96.83;99565.81;1756693;81;20200;-80
2022/07/14 00:46:43;;;;;;;;;;;;;;;16.20;97.05;99560.54;1757705;81;20200;-80
2022/07/14 00:49:47;;;;;;;;;;;;;;;16.19;97.13;99551.97;1757727;81;20212;-81
2022/07/14 00:52:52;;;;;;;;;;;;;;;16.16;97.13;99551.03;1757446;81;20176;-81
2022/07/14 00:55:57;;;;;;;;;;;;;;;16.15;97.24;99546.06;1757831;81;20976;-80
2022/07/14 00:59:02;;;;;;;;;;;;;;;16.12;97.39;99542.91;1756887;81;20181;-80
2022/07/14 01:02:06;;;;;;;;;;;;;;;16.12;97.78;99549.81;1745495;82;20225;-80
2022/07/14 01:05:05;;;;;;;;;;;;;;;16.16;98.24;99556.55;1745973;82;20225;-80
2022/07/14 01:07:56;;;;;;;;;;;;;;;16.18;98.32;99562.67;1746063;81;20609;-80
2022/07/14 01:10:42;;;;;;;;;;;;;;;16.18;98.49;99554.39;1746206;82;20221;-80
2022/07/14 01:13:48;;;;;;;;;;;;;;;16.16;98.55;99552.41;1745095;82;20201;-81
2022/07/14 01:16:54;;;;;;;;;;;;;;;16.12;98.75;99553.95;1744516;82;20225;-80
2022/07/14 01:20:00;;;;;;;;;;;;;;;16.07;99.10;99555.48;1745427;82;20225;-80
2022/07/14 01:23:04;;;;;;;;;;;;;;;16.02;99.30;99553.95;1744739;82;20181;-80
2022/07/14 01:26:08;;;;;;;;;;;;;;;15.96;99.59;99555.41;1745722;82;20919;-79
2022/07/14 01:29:13;;;;;;;;;;;;;;;15.93;100.00;99556.70;1744180;82;20593;-80
2022/07/14 01:32:19;;;;;;;;;;;;;;;15.95;100.00;99553.20;1735976;82;20608;-80
2022/07/14 01:35:22;;;;;;;;;;;;;;;15.95;100.00;99553.20;1730994;83;20197;-81
2022/07/14 01:38:26;;;;;;;;;;;;;;;15.96;100.00;99549.90;1729660;83;20193;-79
2022/07/14 01:41:31;;;;;;;;;;;;;;;15.98;100.00;99547.20;1730897;83;20193;-79
2022/07/14 01:44:29;;;;;;;;;;;;;;;15.98;100.00;99547.20;1730000;83;20201;-81
2022/07/14 01:47:35;;;;;;;;;;;;;;;15.97;100.00;99551.04;1730354;83;20668;-80
2022/07/14 01:50:39;;;;;;;;;;;;;;;15.99;100.00;99547.50;1730999;83;20196;-80
2022/07/14 01:53:45;;;;;;;;;;;;;;;16.01;100.00;99545.91;1729085;83;20169;-80
2022/07/14 01:56:50;;;;;;;;;;;;;;;16.01;100.00;99540.40;1730779;83;20161;-80
2022/07/14 01:59:55;;;;;;;;;;;;;;;16.01;100.00;99546.75;1731119;83;20481;-80
2022/07/14 02:03:01;;;;;;;;;;;;;;;16.03;100.00;99546.52;1730025;83;20200;-81
2022/07/14 02:06:06;;;;;;;;;;;;;;;16.05;100.00;99539.70;1729633;83;20205;-79
2022/07/14 02:09:11;;;;;;;;;;;;;;;16.07;100.00;99537.55;1729698;83;20771;-80
2022/07/14 02:12:17;;;;;;;;;;;;;;;16.08;100.00;99539.22;1729379;83;20623;-80
2022/07/14 02:15:21;;;;;;;;;;;;;;;16.13;100.00;99534.94;1747864;81;20196;-80
2022/07/14 02:18:27;;;;;;;;;;;;;;;16.19;100.00;99527.13;1759814;81;20228;-80
2022/07/14 02:21:33;;;;;;;;;;;;;;;16.23;100.00;99540.74;1761019;81;20196;-80
2022/07/14 02:24:37;;;;;;;;;;;;;;;16.24;100.00;99545.21;1759624;81;20647;-80
2022/07/14 02:27:42;;;;;;;;;;;;;;;16.21;100.00;99545.13;1760569;81;20212;-80
2022/07/14 02:30:47;;;;;;;;;;;;;;;16.20;100.00;99538.47;1736120;81;20243;-81
2022/07/14 02:33:51;;;;;;;;;;;;;;;16.20;100.00;99542.06;1716527;83;20599;-81
2022/07/14 02:36:56;;;;;;;;;;;;;;;16.19;100.00;99544.53;1715900;83;20192;-81
2022/07/14 02:40:00;;;;;;;;;;;;;;;16.18;100.00;99548.33;1716409;83;20195;-80
2022/07/14 02:43:03;;;;;;;;;;;;;;;16.17;100.00;99543.06;1716272;83;20192;-80
2022/07/14 02:46:08;;;;;;;;;;;;;;;16.13;100.00;99551.48;1716370;83;20140;-82
2022/07/14 02:49:13;;;;;;;;;;;;;;;16.13;100.00;99550.11;1716249;83;20604;-81
2022/07/14 02:52:18;;;;;;;;;;;;;;;16.14;100.00;99551.78;1715595;83;20555;-80
2022/07/14 02:55:24;;;;;;;;;;;;;;;16.15;100.00;99552.12;1715050;83;20456;-80
2022/07/14 02:58:23;;;;;;;;;;;;;;;16.15;100.00;99549.36;1715316;83;20591;-80
2022/07/14 03:01:27;;;;;;;;;;;;;;;16.14;100.00;99549.02;1716570;83;20187;-80
2022/07/14 03:04:32;;;;;;;;;;;;;;;16.15;100.00;99552.12;1715774;83;20488;-81
2022/07/14 03:07:37;;;;;;;;;;;;;;;16.15;100.00;99547.44;1715381;83;20228;-81
2022/07/14 03:10:43;;;;;;;;;;;;;;;16.19;100.00;99554.72;1716136;83;20215;-80
2022/07/14 03:13:47;;;;;;;;;;;;;;;16.24;100.00;99552.11;1714778;83;20180;-81
2022/07/14 03:16:51;;;;;;;;;;;;;;;16.28;100.00;99548.66;1715919;83;20199;-80
2022/07/14 03:19:58;;;;;;;;;;;;;;;16.35;100.00;99548.02;1716243;83;20199;-81
2022/07/14 03:23:02;;;;;;;;;;;;;;;16.40;100.00;99545.94;1715561;83;20694;-80
2022/07/14 03:26:06;;;;;;;;;;;;;;;16.45;100.00;99543.32;1714912;83;20227;-80
2022/07/14 03:29:12;;;;;;;;;;;;;;;16.52;100.00;99553.75;1716148;83;20199;-80
2022/07/14 03:32:17;;;;;;;;;;;;;;;16.59;100.00;99548.12;1715809;83;20179;-81
2022/07/14 03:35:22;;;;;;;;;;;;;;;16.65;100.00;99552.70;1698056;84;20189;-80
2022/07/14 03:38:27;;;;;;;;;;;;;;;16.73;100.00;99551.02;1697832;84;20199;-80
2022/07/14 03:41:32;;;;;;;;;;;;;;;16.81;100.00;99560.91;1699193;84;20229;-80
2022/07/14 03:44:37;;;;;;;;;;;;;;;16.90;100.00;99560.88;1708247;83;20274;-80
2022/07/14 03:47:42;;;;;;;;;;;;;;;17.08;100.00;99562.73;1729247;83;20199;-80
2022/07/14 03:50:48;;;;;;;;;;;;;;;17.41;99.81;99561.31;1729263;83;20191;-80
2022/07/14 03:53:53;;;;;;;;;;;;;;;17.80;98.05;99566.72;1728040;83;20227;-80
2022/07/14 03:56:57;;;;;;;;;;;;;;;18.19;95.65;99561.48;1729419;83;20194;-80
2022/07/14 03:59:56;;;;;;;;;;;;;;;18.59;93.34;99559.56;1716715;83;21026;-80
2022/07/14 04:03:02;;;;;;;;;;;;;;;18.85;90.75;99567.00;1699147;84;20229;-80
2022/07/14 04:06:06;;;;;;;;;;;;;;;18.98;88.62;99565.86;1698576;84;20228;-81
2022/07/14 04:09:10;;;;;;;;;;;;;;;19.12;87.32;99566.67;1700085;84;20507;-80
2022/07/14 04:12:16;;;;;;;;;;;;;;;19.18;85.38;99552.34;1698776;84;20213;-80
2022/07/14 04:15:20;;;;;;;;;;;;;;;19.31;84.58;99558.12;1716399;83;20254;-80
2022/07/14 04:18:23;;;;;;;;;;;;;;;19.36;83.35;99555.42;1729113;83;20231;-81
2022/07/14 04:21:22;;;;;;;;;;;;;;;19.40;82.42;99558.83;1729577;83;20233;-81
2022/07/14 04:24:27;;;;;;;;;;;;;;;19.51;82.39;99556.22;1729513;83;20195;-81
2022/07/14 04:27:31;;;;;;;;;;;;;;;19.65;80.97;99560.35;1729099;83;20223;-81
2022/07/14 04:30:36;;;;;;;;;;;;;;;19.84;80.02;99559.53;1707987;83;20633;-80
2022/07/14 04:33:41;;;;;;;;;;;;;;;20.10;79.43;99562.97;1698176;84;20236;-80
2022/07/14 04:36:45;;;;;;;;;;;;;;;20.30;78.01;99565.72;1726068;83;20207;-79
2022/07/14 04:39:50;;;;;;;;;;;;;;;20.45;77.25;99567.84;1727667;83;20657;-80
2022/07/14 04:42:55;;;;;;;;;;;;;;;20.56;76.18;99564.97;1727115;83;20203;-81
2022/07/14 04:46:00;;;;;;;;;;;;;;;20.70;75.64;99572.88;1702397;83;20680;-79
2022/07/14 04:52:29;;;;;;;;;;;;;;;20.65;75.04;99576.44;1698169;84;20217;-80
2022/07/14 04:55:36;;;;;;;;;;;;;;;20.60;74.71;99580.00;1699113;82;20319;-81
2022/07/14 04:59:00;;;;;;;;;;;;;;;20.59;74.70;99583.88;1698981;83;20249;-80
2022/07/14 05:02:04;;;;;;;;;;;;;;;20.59;74.00;99581.11;1698642;84;20209;-81
2022/07/14 05:05:11;;;;;;;;;;;;;;;20.56;73.49;99589.98;1697732;84;20220;-80
2022/07/14 05:08:17;;;;;;;;;;;;;;;20.52;73.65;99589.36;1697299;84;20213;-81
2022/07/14 05:11:22;;;;;;;;;;;;;;;20.41;73.01;99589.18;1697661;84;20557;-80
2022/07/14 05:14:26;;;;;;;;;;;;;;;20.36;74.08;99596.61;1697791;83;20201;-81
2022/07/14 05:17:29;;;;;;;;;;;;;;;20.52;75.23;99592.98;1697826;84;20241;-80
2022/07/14 05:20:36;;;;;;;;;;;;;;;20.67;73.78;99591.77;1699318;84;20201;-80
2022/07/14 05:23:41;;;;;;;;;;;;;;;20.65;72.94;99588.42;1698968;84;20225;-80
2022/07/14 05:26:45;;;;;;;;;;;;;;;20.64;72.76;99593.66;1699077;84;20186;-80
2022/07/14 05:29:49;;;;;;;;;;;;;;;20.62;72.12;99597.82;1699151;83;20233;-80
2022/07/14 05:32:53;;;;;;;;;;;;;;;20.58;72.03;99599.43;1699335;84;20217;-80
2022/07/14 05:35:59;;;;;;;;;;;;;;;20.56;72.49;99604.39;1713107;83;20199;-80
2022/07/14 05:39:02;;;;;;;;;;;;;;;20.56;73.04;99605.78;1727848;83;20602;-80
2022/07/14 05:42:06;;;;;;;;;;;;;;;20.55;72.87;99598.00;1727456;83;20206;-81
2022/07/14 05:45:11;;;;;;;;;;;;;;;20.46;72.97;99598.67;1743663;81;20364;-80
2022/07/14 05:48:16;;;;;;;;;;;;;;;20.31;73.32;99593.77;1757062;81;20221;-80
2022/07/14 05:51:23;;;;;;;;;;;;;;;20.15;73.98;99594.95;1756497;81;20221;-80
2022/07/14 05:54:27;;;;;;;;;;;;;;;20.01;73.92;99595.59;1757805;81;20200;-80
2022/07/14 05:57:32;;;;;;;;;;;;;;;19.81;74.38;99605.29;1754809;81;20256;-80
2022/07/14 06:00:37;;;;;;;;;;;;;;;19.71;75.13;99600.11;1760383;81;20176;-80
2022/07/14 06:03:42;;;;;;;;;;;;;;;19.66;75.31;99605.03;1758779;81;20590;-80
2022/07/14 06:06:53;;;;;;;;;;;;;;;19.60;75.67;99604.66;1759874;81;20200;-80
2022/07/14 06:09:58;;;;;;;;;;;;;;;19.57;76.71;99608.77;1735961;82;20637;-80
2022/07/14 06:13:03;;;;;;;;;;;;;;;19.61;76.96;99609.11;1716599;83;20193;-80
2022/07/14 06:16:09;;;;;;;;;;;;;;;19.62;77.46;99604.72;1741186;82;20197;-80
2022/07/14 06:19:13;;;;;;;;;;;;;;;19.60;77.17;99613.81;1741207;82;20417;-80
2022/07/14 06:22:18;;;;;;;;;;;;;;;19.59;77.07;99602.41;1753506;81;20218;-80
2022/07/14 06:25:22;;;;;;;;;;;;;;;19.59;77.17;99608.50;1747508;81;20197;-79
2022/07/14 06:28:27;;;;;;;;;;;;;;;19.57;77.22;99608.77;1743153;82;20700;-79
2022/07/14 06:31:34;;;;;;;;;;;;;;;19.65;77.64;99598.64;1744793;82;20201;-81
2022/07/14 06:34:37;;;;;;;;;;;;;;;19.87;77.96;99597.87;1750881;81;20232;-81
2022/07/14 06:37:45;;;;;;;;;;;;;;;20.19;76.00;99597.23;1752933;81;20212;-80
2022/07/14 06:40:50;;;;;;;;;;;;;;;20.51;75.52;99606.55;1756644;81;20236;-81
2022/07/14 06:43:56;;;;;;;;;;;;;;;20.75;74.60;99602.98;1735001;81;20209;-81
2022/07/14 06:47:01;;;;;;;;;;;;;;;20.80;73.34;99607.77;1727191;82;20615;-80
2022/07/14 06:50:08;;;;;;;;;;;;;;;20.79;73.09;99606.05;1725180;82;20234;-80
2022/07/14 06:53:11;;;;;;;;;;;;;;;20.98;73.39;99608.77;1732556;82;20205;-81
2022/07/14 06:56:16;;;;;;;;;;;;;;;21.33;70.97;99601.38;1734719;81;20676;-81
2022/07/14 06:59:19;;;;;;;;;;;;;;;21.54;69.94;99602.39;1747776;81;20597;-81
2022/07/14 07:02:19;;;;;;;;;;;;;;;21.66;67.94;99603.05;1736976;81;20205;-82
2022/07/14 07:08:34;;;;;;;;;;;;;;;21.85;65.23;99606.26;1744390;81;20190;-81
2022/07/14 07:11:54;;;;;;;;;;;;;;;21.75;63.15;99603.96;1739757;81;20228;-80
2022/07/14 07:14:57;;;;;;;;;;;;;;;21.42;64.05;99612.87;1745280;80;20187;-81
2022/07/14 07:18:04;;;;;;;;;;;;;;;21.28;65.04;99604.64;1725268;82;20701;-81
2022/07/14 07:21:08;;;;;;;;;;;;;;;21.32;64.45;99610.84;1717638;82;20643;-80
2022/07/14 07:24:12;;;;;;;;;;;;;;;21.54;64.94;99607.95;1745614;81;20665;-81
2022/07/14 07:27:16;;;;;;;;;;;;;;;21.68;62.33;99614.75;1724553;82;20640;-80
2022/07/14 07:30:21;;;;;;;;;;;;;;;21.65;62.64;99617.25;1753530;81;20187;-80
2022/07/14 07:33:26;;;;;;;;;;;;;;;21.64;62.23;99613.63;1739637;81;20416;-81
2022/07/14 07:36:32;;;;;;;;;;;;;;;21.69;62.35;99628.97;1725808;83;20174;-80
2022/07/14 07:39:38;;;;;;;;;;;;;;;21.69;62.71;99622.57;1747267;81;20598;-79
2022/07/14 07:42:42;;;;;;;;;;;;;;;21.73;62.79;99625.64;1726078;83;20224;-80
2022/07/14 07:45:47;;;;;;;;;;;;;;;21.86;62.38;99616.84;1736332;82;20196;-81
2022/07/14 07:48:52;;;;;;;;;;;;;;;22.16;59.92;99618.48;1713616;82;20186;-80
2022/07/14 07:51:56;;;;;;;;;;;;;;;22.44;58.41;99631.17;1753026;81;20193;-80
2022/07/14 07:55:00;;;;;;;;;;;;;;;22.43;57.11;99624.46;1714991;83;20185;-80
2022/07/14 07:58:07;;;;;;;;;;;;;;;22.27;57.97;99629.67;1730622;82;20183;-80
2022/07/14 08:01:10;;;;;;;;;;;;;;;22.16;58.25;99638.50;1753661;81;20202;-81
2022/07/14 08:04:15;;;;;;;;;;;;;;;22.17;58.97;99628.51;1735506;81;20713;-80
2022/07/14 08:07:18;;;;;;;;;;;;;;;22.41;58.04;99635.05;1747333;81;20607;-80
2022/07/14 08:10:22;;;;;;;;;;;;;;;22.64;56.25;99646.31;1748142;81;20896;-81
2022/07/14 08:13:29;;;;;;;;;;;;;;;22.64;55.13;99651.33;1721507;82;20502;-81
2022/07/14 08:16:34;;;;;;;;;;;;;;;22.50;55.88;99639.00;1747132;81;20581;-81
2022/07/14 08:19:34;;;;;;;;;;;;;;;22.25;57.22;99636.89;1715413;83;20214;-80
2022/07/14 08:22:38;;;;;;;;;;;;;;;22.27;57.84;99638.03;1715020;82;20200;-80
2022/07/14 08:25:43;;;;;;;;;;;;;;;22.42;57.21;99632.54;1753426;81;20228;-80
2022/07/14 08:28:47;;;;;;;;;;;;;;;22.42;55.55;99650.09;1712997;83;20209;-80
2022/07/14 08:31:52;;;;;;;;;;;;;;;22.44;55.53;99642.32;1732696;82;20304;-80
2022/07/14 08:34:58;;;;;;;;;;;;;;;22.50;55.85;99640.39;1739429;82;20185;-80
2022/07/14 08:38:03;;;;;;;;;;;;;;;22.56;56.11;99639.86;1745671;82;20267;-80
2022/07/14 08:41:08;;;;;;;;;;;;;;;22.57;55.84;99642.92;1747413;82;20606;-80
2022/07/14 08:44:12;;;;;;;;;;;;;;;22.40;55.67;99654.28;1746136;82;20195;-81
2022/07/14 08:47:17;;;;;;;;;;;;;;;22.29;55.08;99660.88;1759258;81;20200;-81
2022/07/14 08:50:25;;;;;;;;;;;;;;;22.25;55.55;99655.55;1761291;80;20245;-82
2022/07/14 08:53:29;;;;;;;;;;;;;;;22.18;55.58;99657.20;1751591;80;20197;-80
2022/07/14 08:56:34;;;;;;;;;;;;;;;22.17;55.81;99661.09;1758861;80;20267;-79
2022/07/14 08:59:40;;;;;;;;;;;;;;;22.14;55.74;99656.89;1728834;83;20412;-80
2022/07/14 09:02:44;;;;;;;;;;;;;;;22.15;55.66;99660.50;1727598;83;20557;-79
2022/07/14 09:05:53;;;;;;;;;;;;;;;22.17;56.06;99664.72;1754177;81;20256;-79
2022/07/14 09:09:03;;;;;;;;;;;;;;;22.33;56.12;99663.41;1728805;82;20206;-80
2022/07/14 09:12:13;;;;;;;;;;;;;;;22.52;56.59;99667.42;1735097;81;20469;-79
2022/07/14 09:18:41;;;;;;;;;;;;;;;22.70;54.26;99682.84;1738421;81;20208;-79
2022/07/14 09:21:49;;;;;;;;;;;;;;;22.67;54.56;99675.85;1750204;81;20220;-81
2022/07/14 09:24:59;;;;;;;;;;;;;;;22.71;54.32;99686.75;1747794;82;20656;-80
2022/07/14 09:28:03;;;;;;;;;;;;;;;22.77;54.01;99688.16;1747770;82;20209;-79
2022/07/14 09:31:28;;;;;;;;;;;;;;;22.78;53.05;99680.11;1758758;81;20204;-80
2022/07/14 09:34:37;;;;;;;;;;;;;;;22.70;52.57;99693.44;1696278;84;20743;-80
2022/07/14 09:37:42;;;;;;;;;;;;;;;22.68;53.72;99681.73;1696561;84;20193;-81
2022/07/14 09:40:47;;;;;;;;;;;;;;;22.78;52.59;99677.32;1726260;82;20193;-80
2022/07/14 09:44:18;;;;;;;;;;;;;;;22.93;53.01;99677.41;1745725;82;20394;-80
2022/07/14 09:47:23;;;;;;;;;;;;;;;23.08;51.81;99677.45;1743726;82;20452;-81
2022/07/14 09:50:51;;;;;;;;;;;;;;;23.24;52.70;99677.49;1722855;82;20585;-80
2022/07/14 09:53:57;;;;;;;;;;;;;;;23.38;50.26;99673.92;1735775;82;20635;-80
2022/07/14 09:57:02;;;;;;;;;;;;;;;23.38;47.54;99688.41;1716672;83;20687;-80
2022/07/14 10:00:19;;;;;;;;;;;;;;;23.30;46.78;99679.20;1736614;82;20205;-79
2022/07/14 10:03:24;;;;;;;;;;;;;;;23.40;48.54;99677.27;1746081;82;20667;-79
2022/07/14 10:06:28;;;;;;;;;;;;;;;23.61;49.98;99680.91;1715252;82;20604;-80
2022/07/14 10:09:37;;;;;;;;;;;;;;;23.89;49.53;99687.11;1714705;83;20160;-80
2022/07/14 10:12:41;;;;;;;;;;;;;;;24.15;48.83;99676.20;1714708;82;20187;-79
2022/07/14 10:15:46;;;;;;;;;;;;;;;24.27;47.46;99687.64;1714550;82;20200;-80
2022/07/14 10:18:44;;;;;;;;;;;;;;;24.21;47.45;99689.05;1714808;83;20224;-81
2022/07/14 10:21:48;;;;;;;;;;;;;;;24.17;47.37;99692.12;1714446;83;20679;-80
2022/07/14 10:24:54;;;;;;;;;;;;;;;24.18;48.00;99692.42;1714532;83;20208;-80
2022/07/14 10:28:00;;;;;;;;;;;;;;;24.18;47.55;99693.82;1714467;83;20603;-81
2022/07/14 10:31:23;;;;;;;;;;;;;;;24.30;46.85;99689.31;1737842;82;20229;-81
2022/07/14 10:34:36;;;;;;;;;;;;;;;24.41;44.41;99692.95;1746498;82;20221;-81
2022/07/14 10:37:50;;;;;;;;;;;;;;;24.37;44.71;99694.63;1745540;82;20217;-80
2022/07/14 10:41:16;;;;;;;;;;;;;;;24.27;45.55;99696.02;1735186;81;20189;-80
2022/07/14 10:44:29;;;;;;;;;;;;;;;24.24;45.56;99690.45;1793387;80;20200;-80
2022/07/14 10:47:45;;;;;;;;;;;;;;;24.22;46.75;99707.48;1795145;80;20550;-80
2022/07/14 10:50:36;;;;;;;;;;;;;;;24.19;47.24;99698.28;1793660;80;20235;-81
2022/07/14 10:53:21;;;;;;;;;;;;;;;24.20;47.32;99701.91;1794777;80;20707;-81
2022/07/14 10:56:14;;;;;;;;;;;;;;;24.25;47.47;99700.50;1795077;80;20176;-80
2022/07/14 10:59:36;;;;;;;;;;;;;;;24.36;47.16;99709.70;1795590;80;20184;-80
2022/07/14 11:02:41;;;;;;;;;;;;;;;24.30;46.93;99723.41;1796636;80;20204;-81
2022/07/14 11:06:10;;;;;;;;;;;;;;;24.06;47.17;99721.19;1796663;80;20588;-80
2022/07/14 11:09:37;;;;;;;;;;;;;;;23.83;48.13;99714.20;1797089;80;20192;-81
2022/07/14 11:12:41;;;;;;;;;;;;;;;23.71;49.04;99708.03;1796849;80;20215;-80
2022/07/14 11:15:51;;;;;;;;;;;;;;;23.70;47.44;99722.55;1796765;80;20196;-80
2022/07/14 11:18:55;;;;;;;;;;;;;;;23.64;46.02;99710.27;1796918;80;20588;-80
2022/07/14 11:22:25;;;;;;;;;;;;;;;23.65;47.04;99704.96;1783133;80;20634;-81
2022/07/14 11:25:34;;;;;;;;;;;;;;;23.59;47.05;99726.42;1795432;80;20612;-80
2022/07/14 11:28:48;;;;;;;;;;;;;;;23.43;47.79;99717.72;1796551;80;20595;-81
2022/07/14 11:31:59;;;;;;;;;;;;;;;23.38;48.57;99717.70;1796620;80;20592;-80
2022/07/14 11:38:34;;;;;;;;;;;;;;;23.50;49.34;99728.64;1797088;80;20223;-80
2022/07/14 11:41:53;;;;;;;;;;;;;;;23.57;50.24;99718.89;1801377;79;20216;-80
2022/07/14 11:44:59;;;;;;;;;;;;;;;23.63;49.46;99716.38;1809391;79;20196;-81
2022/07/14 11:48:03;;;;;;;;;;;;;;;23.76;49.14;99714.18;1808339;79;20224;-80
2022/07/14 11:51:32;;;;;;;;;;;;;;;23.84;48.16;99708.05;1808555;79;20456;-81
2022/07/14 11:54:37;;;;;;;;;;;;;;;23.79;48.04;99721.45;1809659;79;20240;-80
2022/07/14 11:57:42;;;;;;;;;;;;;;;23.77;48.82;99726.48;1808879;79;20196;-80
2022/07/14 12:00:50;;;;;;;;;;;;;;;23.78;48.50;99725.36;1808788;79;20169;-80
2022/07/14 12:03:54;;;;;;;;;;;;;;;23.80;48.58;99725.08;1808046;79;20188;-81
2022/07/14 12:07:00;;;;;;;;;;;;;;;23.82;48.51;99731.23;1809347;79;20216;-81
2022/07/14 12:10:05;;;;;;;;;;;;;;;23.75;48.84;99741.27;1779794;80;20660;-80
2022/07/14 12:13:10;;;;;;;;;;;;;;;23.67;49.94;99735.69;1760044;81;20213;-80
2022/07/14 12:16:15;;;;;;;;;;;;;;;23.80;49.53;99742.66;1728501;81;20259;-80
2022/07/14 12:19:20;;;;;;;;;;;;;;;23.99;47.32;99738.77;1727704;83;20168;-80
2022/07/14 12:22:24;;;;;;;;;;;;;;;24.13;47.72;99734.30;1726911;83;20694;-80
2022/07/14 12:25:36;;;;;;;;;;;;;;;24.21;46.04;99740.73;1727486;83;20207;-80
2022/07/14 12:28:39;;;;;;;;;;;;;;;24.16;46.01;99742.70;1727966;83;20227;-80
2022/07/14 12:31:48;;;;;;;;;;;;;;;24.07;46.88;99752.19;1730692;83;20603;-80
2022/07/14 12:34:51;;;;;;;;;;;;;;;24.14;46.90;99742.16;1730951;83;20187;-80
2022/07/14 12:37:59;;;;;;;;;;;;;;;24.17;47.07;99754.15;1731326;83;20443;-80
2022/07/14 12:41:08;;;;;;;;;;;;;;;24.13;46.97;99741.28;1730929;83;20175;-80
2022/07/14 12:44:13;;;;;;;;;;;;;;;24.06;47.25;99754.71;1730889;81;20198;-80
2022/07/14 12:47:18;;;;;;;;;;;;;;;24.10;46.78;99751.64;1729327;83;20206;-80
2022/07/14 12:50:29;;;;;;;;;;;;;;;24.22;45.56;99748.55;1727785;83;20179;-80
2022/07/14 12:53:34;;;;;;;;;;;;;;;24.30;45.54;99759.74;1727903;83;20179;-80
2022/07/14 12:56:41;;;;;;;;;;;;;;;24.24;45.27;99756.12;1728357;83;20207;-80
2022/07/14 12:59:46;;;;;;;;;;;;;;;24.05;45.74;99771.20;1729253;83;20606;-80
2022/07/14 13:02:50;;;;;;;;;;;;;;;23.88;46.16;99772.01;1728006;83;20208;-80
2022/07/14 13:06:01;;;;;;;;;;;;;;;23.73;46.96;99778.97;1729370;83;20191;-80
2022/07/14 13:09:06;;;;;;;;;;;;;;;23.64;48.19;99778.66;1729448;83;20203;-80
2022/07/14 13:12:33;;;;;;;;;;;;;;;23.58;46.55;99775.55;1727589;83;20206;-80
2022/07/14 13:15:38;;;;;;;;;;;;;;;23.61;46.49;99771.63;1729120;83;20634;-80
2022/07/14 13:18:42;;;;;;;;;;;;;;;23.78;46.89;99772.83;1727831;83;20203;-80
2022/07/14 13:22:08;;;;;;;;;;;;;;;23.83;46.64;99773.40;1727841;83;20222;-81
2022/07/14 13:25:13;;;;;;;;;;;;;;;23.78;46.50;99779.81;1727693;83;20202;-81
2022/07/14 13:28:18;;;;;;;;;;;;;;;23.65;46.06;99781.17;1728149;83;20210;-80
2022/07/14 13:31:22;;;;;;;;;;;;;;;23.54;46.59;99786.98;1730686;83;20511;-80
2022/07/14 13:34:13;;;;;;;;;;;;;;;23.48;46.78;99779.16;1731098;83;20190;-81
2022/07/14 13:37:22;;;;;;;;;;;;;;;23.45;47.29;99772.72;1729157;83;20230;-80
2022/07/14 13:40:28;;;;;;;;;;;;;;;23.39;46.70;99766.84;1731044;83;20194;-80
2022/07/14 13:43:33;;;;;;;;;;;;;;;23.26;45.99;99770.97;1730288;82;20210;-80
2022/07/14 13:46:37;;;;;;;;;;;;;;;23.17;45.73;99780.42;1731855;83;20263;-81
2022/07/14 13:53:07;;;;;;;;;;;;;;;23.24;46.32;99771.78;1730617;83;20184;-80
2022/07/14 13:56:11;;;;;;;;;;;;;;;23.40;45.22;99781.08;1731818;82;20594;-80
2022/07/14 13:59:17;;;;;;;;;;;;;;;23.52;45.68;99770.48;1731972;81;20179;-80
2022/07/14 14:02:23;;;;;;;;;;;;;;;23.62;45.24;99790.09;1730938;81;20195;-80
2022/07/14 14:05:28;;;;;;;;;;;;;;;23.71;45.67;99775.03;1727969;83;20702;-80
2022/07/14 14:08:36;;;;;;;;;;;;;;;23.79;44.54;99783.44;1726232;83;20223;-80
2022/07/14 14:11:42;;;;;;;;;;;;;;;23.86;45.05;99796.59;1726522;83;20199;-80
2022/07/14 14:14:47;;;;;;;;;;;;;;;23.85;43.99;99787.91;1726301;81;20216;-80
2022/07/14 14:17:51;;;;;;;;;;;;;;;23.84;44.29;99784.84;1728002;83;20456;-80
2022/07/14 14:20:55;;;;;;;;;;;;;;;23.87;43.82;99785.70;1727937;83;20195;-80
2022/07/14 14:24:00;;;;;;;;;;;;;;;23.90;44.48;99776.74;1726432;83;20183;-81
2022/07/14 14:27:05;;;;;;;;;;;;;;;23.92;43.30;99784.31;1726437;83;20210;-80
2022/07/14 14:30:11;;;;;;;;;;;;;;;23.88;43.09;99787.37;1728024;81;20243;-80
2022/07/14 14:33:17;;;;;;;;;;;;;;;23.83;43.16;99796.58;1728027;82;20199;-80
2022/07/14 14:36:21;;;;;;;;;;;;;;;23.81;43.14;99804.41;1761209;81;20495;-80
2022/07/14 14:39:26;;;;;;;;;;;;;;;23.79;41.71;99791.81;1760679;81;20194;-80
2022/07/14 14:42:29;;;;;;;;;;;;;;;23.76;42.49;99802.13;1760610;81;20676;-81
2022/07/14 14:45:33;;;;;;;;;;;;;;;23.77;42.19;99793.50;1759575;81;20207;-80
2022/07/14 14:48:39;;;;;;;;;;;;;;;23.83;41.89;99790.98;1751499;81;20198;-80
2022/07/14 14:51:42;;;;;;;;;;;;;;;23.89;41.21;99785.69;1761125;81;20188;-81
2022/07/14 14:54:47;;;;;;;;;;;;;;;23.93;40.41;99795.75;1761251;81;20196;-79
2022/07/14 14:57:51;;;;;;;;;;;;;;;23.94;42.16;99812.78;1760754;81;20236;-80
2022/07/14 15:00:55;;;;;;;;;;;;;;;23.93;41.24;99794.36;1732453;81;20612;-80
2022/07/14 15:04:00;;;;;;;;;;;;;;;23.89;40.86;99801.05;1722408;83;20205;-80
2022/07/14 15:07:05;;;;;;;;;;;;;;;23.84;41.00;99797.41;1722415;83;20201;-80
2022/07/14 15:10:12;;;;;;;;;;;;;;;23.77;41.43;99813.05;1723786;83;20190;-81
2022/07/14 15:13:16;;;;;;;;;;;;;;;23.69;41.58;99828.37;1723757;83;20637;-80
2022/07/14 15:16:21;;;;;;;;;;;;;;;23.59;41.62;99807.38;1724060;83;20684;-81
2022/07/14 15:19:18;;;;;;;;;;;;;;;23.55;42.16;99813.22;1698777;83;20203;-80
2022/07/14 15:22:17;;;;;;;;;;;;;;;23.52;42.59;99820.73;1747314;82;20664;-80
2022/07/14 15:25:16;;;;;;;;;;;;;;;23.46;42.75;99819.05;1747249;82;20601;-80
2022/07/14 15:28:15;;;;;;;;;;;;;;;23.41;43.00;99825.44;1746330;81;20197;-80
2022/07/14 15:31:08;;;;;;;;;;;;;;;23.38;43.77;99823.22;1717343;82;20193;-80
2022/07/14 15:33:53;;;;;;;;;;;;;;;23.35;42.26;99838.27;1726030;83;20612;-80
2022/07/14 15:36:45;;;;;;;;;;;;;;;23.33;42.29;99834.88;1726308;83;20473;-80
2022/07/14 15:43:12;;;;;;;;;;;;;;;23.30;42.66;99828.47;1724969;82;20230;-80
2022/07/14 15:46:16;;;;;;;;;;;;;;;23.29;43.03;99830.95;1738843;82;20201;-80
2022/07/14 15:49:22;;;;;;;;;;;;;;;23.26;43.06;99836.54;1743999;82;20216;-80
2022/07/14 15:52:28;;;;;;;;;;;;;;;23.25;43.46;99836.27;1745370;82;20215;-80
2022/07/14 15:55:34;;;;;;;;;;;;;;;23.24;43.29;99835.12;1746368;82;20185;-80
2022/07/14 15:58:39;;;;;;;;;;;;;;;23.21;43.88;99844.33;1745144;82;20604;-80
2022/07/14 16:01:44;;;;;;;;;;;;;;;23.18;43.78;99850.44;1745316;82;20205;-80
2022/07/14 16:04:50;;;;;;;;;;;;;;;23.16;44.27;99847.09;1744457;82;20185;-80
2022/07/14 16:07:54;;;;;;;;;;;;;;;23.13;44.36;99848.18;1745881;82;20205;-80
2022/07/14 16:10:59;;;;;;;;;;;;;;;23.10;44.16;99850.10;1746634;82;20206;-80
2022/07/14 16:14:03;;;;;;;;;;;;;;;23.06;44.38;99845.64;1746914;82;20201;-80
2022/07/14 16:17:09;;;;;;;;;;;;;;;23.04;44.90;99856.77;1746884;82;20193;-80
2022/07/14 16:20:13;;;;;;;;;;;;;;;22.99;45.11;99851.16;1747027;82;20214;-80
2022/07/14 16:23:17;;;;;;;;;;;;;;;22.95;45.43;99850.85;1747034;82;20601;-80